Time;durP1;ratioP1;P1;durP2;ratioP2;P2;SDS_P1;SDS_P2;PMS_P1;PMS_P2;Temp;Humidity;BMP_temperature;BMP_pressure;BME280_temperature;BME280_humidity;BME280_pressure;Samples;Min_cycle;Max_cycle;Signal;HPM_P1;HPM_P2
2022/01/07 00:00:47;;;;;;;28.60;11.30;;;;;;;-3.39;100.00;99162.78;5108164;28;20024;-70
2022/01/07 00:03:15;;;;;;;25.63;10.98;;;;;;;-3.44;100.00;99164.91;5109117;28;20039;-71
2022/01/07 00:05:41;;;;;;;22.48;9.80;;;;;;;-3.02;100.00;99191.97;5108045;28;20100;-71
2022/01/07 00:08:07;;;;;;;24.38;11.85;;;;;;;-2.92;100.00;99179.78;5108568;28;20055;-71
2022/01/07 00:10:33;;;;;;;32.42;12.63;;;;;;;-3.05;100.00;99155.13;5119000;28;20047;-72
2022/01/07 00:12:58;;;;;;;29.45;12.45;;;;;;;-2.95;100.00;99172.06;5116175;28;20036;-71
2022/01/07 00:15:24;;;;;;;22.77;11.48;;;;;;;-2.96;100.00;99173.03;5095219;28;20039;-70
2022/01/07 00:17:49;;;;;;;26.67;10.50;;;;;;;-2.95;100.00;99171.22;5086628;28;20025;-70
2022/01/07 00:20:15;;;;;;;25.95;10.15;;;;;;;-3.18;100.00;99149.03;5083619;28;20477;-70
2022/01/07 00:22:42;;;;;;;20.63;9.13;;;;;;;-2.97;100.00;99175.78;5088024;28;20043;-70
2022/01/07 00:25:09;;;;;;;20.45;8.23;;;;;;;-2.91;100.00;99173.56;5083706;28;20131;-70
2022/01/07 00:27:35;;;;;;;25.65;8.60;;;;;;;-3.16;100.00;99128.59;5087368;28;20398;-70
2022/01/07 00:30:00;;;;;;;18.88;8.35;;;;;;;-3.10;100.00;99136.09;5074350;28;20032;-71
2022/01/07 00:32:25;;;;;;;24.00;7.78;;;;;;;-2.88;100.00;99161.91;5093525;28;20062;-71
2022/01/07 00:34:51;;;;;;;22.35;7.80;;;;;;;-2.95;100.00;99147.41;5092340;28;20027;-70
2022/01/07 00:37:17;;;;;;;20.38;7.90;;;;;;;-3.09;100.00;99121.91;5076509;28;21058;-70
2022/01/07 00:39:42;;;;;;;20.63;8.82;;;;;;;-3.08;100.00;99134.19;5082286;28;20098;-70
2022/01/07 00:42:08;;;;;;;21.25;7.95;;;;;;;-3.07;100.00;99162.34;5088502;28;20027;-70
2022/01/07 00:44:34;;;;;;;20.63;8.13;;;;;;;-3.17;100.00;99153.34;5073622;28;20032;-71
2022/01/07 00:46:59;;;;;;;26.33;8.75;;;;;;;-3.22;100.00;99144.88;5080033;28;20035;-71
2022/01/07 00:49:24;;;;;;;17.50;7.60;;;;;;;-3.10;100.00;99157.25;5079077;28;20027;-70
2022/01/07 00:51:50;;;;;;;16.77;7.80;;;;;;;-3.27;100.00;99162.91;5093689;28;20409;-70
2022/01/07 00:54:16;;;;;;;18.88;7.55;;;;;;;-3.28;100.00;99148.81;5089043;28;20149;-70
2022/01/07 00:56:41;;;;;;;19.83;7.63;;;;;;;-3.38;100.00;99142.47;5077972;28;20028;-70
2022/01/07 00:59:06;;;;;;;23.60;8.10;;;;;;;-3.41;100.00;99147.97;5076019;28;20028;-70
2022/01/07 01:01:32;;;;;;;24.85;8.60;;;;;;;-3.45;100.00;99147.34;5077737;28;20035;-71
2022/01/07 01:03:57;;;;;;;20.05;8.02;;;;;;;-3.41;100.00;99142.69;5080510;28;20034;-71
2022/01/07 01:06:22;;;;;;;23.27;8.05;;;;;;;-3.26;100.00;99133.69;5084094;28;20032;-71
2022/01/07 01:08:48;;;;;;;22.77;8.00;;;;;;;-2.96;100.00;99138.63;5091456;28;20489;-71
2022/01/07 01:11:13;;;;;;;17.98;8.02;;;;;;;-2.82;100.00;99134.13;5083490;28;20035;-71
2022/01/07 01:13:38;;;;;;;20.77;8.35;;;;;;;-2.81;100.00;99131.34;5081479;28;20059;-70
2022/01/07 01:16:04;;;;;;;20.63;10.20;;;;;;;-3.06;100.00;99105.81;5076590;28;20025;-70
2022/01/07 01:18:29;;;;;;;24.77;10.07;;;;;;;-3.19;100.00;99121.72;5073515;28;20035;-70
2022/01/07 01:20:54;;;;;;;29.55;10.32;;;;;;;-3.39;100.00;99125.75;5092048;28;20028;-71
2022/01/07 01:23:20;;;;;;;19.88;9.82;;;;;;;-3.35;100.00;99126.41;5075624;28;20066;-70
2022/01/07 01:25:45;;;;;;;16.05;8.55;;;;;;;-3.57;100.00;99122.59;5082086;28;20047;-70
2022/01/07 01:28:10;;;;;;;19.00;8.45;;;;;;;-3.79;100.00;99112.66;5083830;28;20103;-70
2022/01/07 01:30:36;;;;;;;19.38;9.02;;;;;;;-3.63;100.00;99120.38;5074953;28;20038;-70
2022/01/07 01:33:02;;;;;;;24.77;9.27;;;;;;;-3.49;100.00;99116.78;5090621;28;20076;-71
2022/01/07 01:35:28;;;;;;;26.48;9.60;;;;;;;-3.64;100.00;99107.25;5079065;28;20095;-71
2022/01/07 01:37:53;;;;;;;24.05;8.27;;;;;;;-3.69;100.00;99114.66;5078039;28;20574;-70
2022/01/07 01:40:19;;;;;;;18.27;8.10;;;;;;;-3.85;100.00;99102.50;5073347;28;20028;-71
2022/01/07 01:42:47;;;;;;;18.30;8.25;;;;;;;-3.76;100.00;99117.72;5089742;28;20035;-71
2022/01/07 01:45:15;;;;;;;22.15;8.13;;;;;;;-3.88;100.00;99086.00;5088186;28;20032;-70
2022/01/07 01:47:41;;;;;;;23.60;8.57;;;;;;;-3.43;100.00;99095.19;5087935;28;20603;-71
2022/01/07 01:50:07;;;;;;;22.75;7.80;;;;;;;-3.09;100.00;99117.47;5080615;28;20100;-70
2022/01/07 01:52:34;;;;;;;18.30;7.55;;;;;;;-2.97;100.00;99114.88;5073855;28;20036;-71
2022/01/07 01:54:59;;;;;;;23.17;7.00;;;;;;;-2.97;100.00;99115.72;5083852;28;20040;-71
2022/01/07 01:57:25;;;;;;;17.35;7.60;;;;;;;-2.94;100.00;99085.53;5091943;28;20039;-71
2022/01/07 01:59:50;;;;;;;13.75;6.85;;;;;;;-2.68;100.00;99097.72;5087278;28;20035;-71
2022/01/07 02:02:16;;;;;;;14.82;7.25;;;;;;;-2.79;100.00;99073.00;5072741;28;20056;-70
2022/01/07 02:04:41;;;;;;;17.10;7.10;;;;;;;-2.71;100.00;99078.59;5073177;28;20063;-70
2022/01/07 02:07:12;;;;;;;17.20;7.28;;;;;;;-2.85;100.00;99063.72;5089745;28;20028;-70
2022/01/07 02:09:37;;;;;;;17.63;6.93;;;;;;;-2.55;100.00;99091.53;5080382;28;20024;-70
2022/01/07 02:12:08;;;;;;;18.70;8.00;;;;;;;-2.67;100.00;99075.59;5080622;28;20111;-71
2022/01/07 02:14:36;;;;;;;15.80;7.20;;;;;;;-2.64;100.00;99085.13;5088743;28;20106;-71
2022/01/07 02:17:09;;;;;;;18.05;7.10;;;;;;;-2.61;100.00;99078.75;5087631;28;20105;-70
2022/01/07 02:19:36;;;;;;;23.10;7.63;;;;;;;-2.70;100.00;99075.84;5087449;28;20517;-71
2022/01/07 02:22:02;;;;;;;18.45;7.80;;;;;;;-2.71;100.00;99070.63;5087876;28;20039;-71
2022/01/07 02:24:28;;;;;;;14.77;5.90;;;;;;;-2.61;100.00;99068.16;5080393;28;20063;-70
2022/01/07 02:26:55;;;;;;;16.85;6.45;;;;;;;-2.74;100.00;99054.97;5088628;28;20067;-71
2022/01/07 02:29:20;;;;;;;13.77;6.38;;;;;;;-2.88;100.00;99034.81;5089372;28;20039;-71
2022/01/07 02:31:46;;;;;;;13.75;6.88;;;;;;;-2.71;100.00;99071.47;5085755;28;20028;-70
2022/01/07 02:34:11;;;;;;;17.05;6.95;;;;;;;-2.87;100.00;99047.09;5079747;28;20363;-70
2022/01/07 02:36:36;;;;;;;21.98;7.53;;;;;;;-2.79;100.00;99055.31;5078022;28;20024;-71
2022/01/07 02:39:02;;;;;;;14.18;6.43;;;;;;;-2.80;100.00;99058.06;5081257;28;20042;-71
2022/01/07 02:41:28;;;;;;;17.05;6.53;;;;;;;-2.71;100.00;99042.34;5092749;28;20028;-71
2022/01/07 02:43:53;;;;;;;15.65;7.00;;;;;;;-2.76;100.00;99033.91;5079621;28;20492;-71
2022/01/07 02:46:18;;;;;;;14.57;6.45;;;;;;;-2.68;100.00;99046.56;5082777;28;20074;-70
2022/01/07 02:48:44;;;;;;;15.48;6.50;;;;;;;-2.59;100.00;99047.69;5092749;28;20028;-71
2022/01/07 02:51:09;;;;;;;12.45;6.82;;;;;;;-2.67;100.00;99050.94;5076946;28;20435;-71
2022/01/07 02:53:35;;;;;;;20.65;6.57;;;;;;;-2.75;100.00;99021.50;5075092;28;20034;-71
2022/01/07 02:56:00;;;;;;;15.85;6.85;;;;;;;-2.80;100.00;99013.03;5076690;28;20375;-71
2022/01/07 02:58:25;;;;;;;18.00;6.28;;;;;;;-2.72;100.00;99023.94;5071468;28;20059;-70
2022/01/07 03:00:51;;;;;;;13.00;5.88;;;;;;;-2.69;100.00;99021.06;5073205;28;20501;-70
2022/01/07 03:03:16;;;;;;;14.68;5.93;;;;;;;-2.66;100.00;99028.78;5076672;28;20470;-71
2022/01/07 03:05:42;;;;;;;14.15;6.45;;;;;;;-2.60;100.00;99049.50;5091155;28;20115;-71
2022/01/07 03:08:09;;;;;;;17.75;6.15;;;;;;;-2.53;100.00;99057.84;5092688;28;20024;-71
2022/01/07 03:10:34;;;;;;;18.50;6.13;;;;;;;-2.62;100.00;99056.72;5082006;28;20031;-70
2022/01/07 03:13:02;;;;;;;15.05;6.47;;;;;;;-2.81;100.00;99048.44;5080922;28;20525;-71
2022/01/07 03:15:27;;;;;;;18.13;6.25;;;;;;;-2.81;100.00;99054.56;5079268;28;20070;-71
2022/01/07 03:17:53;;;;;;;13.18;6.68;;;;;;;-2.83;100.00;99042.41;5091062;28;20035;-71
2022/01/07 03:20:20;;;;;;;13.77;6.10;;;;;;;-3.14;100.00;99013.75;5084089;28;20035;-71
2022/01/07 03:22:47;;;;;;;13.80;5.55;;;;;;;-3.03;100.00;99034.13;5076014;28;20107;-71
2022/01/07 03:25:13;;;;;;;16.00;5.82;;;;;;;-2.91;100.00;99051.78;5089269;28;20020;-71
2022/01/07 03:27:39;;;;;;;11.38;5.75;;;;;;;-2.92;100.00;99055.34;5082410;28;20033;-71
2022/01/07 03:30:07;;;;;;;14.95;5.70;;;;;;;-2.87;100.00;99058.50;5075979;28;20081;-71
2022/01/07 03:32:33;;;;;;;16.00;6.03;;;;;;;-3.14;100.00;99026.97;5076344;28;20035;-71
2022/01/07 03:34:58;;;;;;;17.42;5.57;;;;;;;-3.02;100.00;99038.44;5075136;28;20402;-71
2022/01/07 03:37:24;;;;;;;13.63;5.53;;;;;;;-2.93;100.00;99027.22;5077292;28;20393;-70
2022/01/07 03:39:49;;;;;;;16.40;6.82;;;;;;;-2.85;100.00;99039.88;5094221;28;20100;-71
2022/01/07 03:42:15;;;;;;;16.40;6.10;;;;;;;-2.92;100.00;99025.41;5095217;28;20036;-71
2022/01/07 03:44:40;;;;;;;15.70;6.03;;;;;;;-2.76;100.00;99060.38;5090050;28;20030;-70
2022/01/07 03:47:06;;;;;;;14.13;5.78;;;;;;;-2.99;100.00;99032.94;5083864;28;20463;-70
2022/01/07 03:49:32;;;;;;;17.10;5.65;;;;;;;-2.83;100.00;99050.34;5077152;28;20543;-70
2022/01/07 03:51:57;;;;;;;12.80;5.72;;;;;;;-3.01;100.00;99039.28;5084898;28;20099;-71
2022/01/07 03:54:22;;;;;;;17.48;6.15;;;;;;;-2.89;100.00;99052.47;5080733;28;20091;-70
2022/01/07 03:56:48;;;;;;;13.07;6.15;;;;;;;-3.17;100.00;99008.69;5088858;28;20035;-71
2022/01/07 03:59:13;;;;;;;12.20;5.82;;;;;;;-3.22;100.00;99004.66;5089313;28;20050;-71
2022/01/07 04:01:39;;;;;;;15.00;5.55;;;;;;;-2.93;100.00;99048.38;5093317;28;20396;-71
2022/01/07 04:04:04;;;;;;;15.75;6.18;;;;;;;-2.89;100.00;99031.31;5092018;28;20031;-71
2022/01/07 04:06:30;;;;;;;15.00;7.13;;;;;;;-2.82;100.00;99044.94;5085577;28;20032;-71
2022/01/07 04:08:55;;;;;;;18.90;6.72;;;;;;;-2.87;100.00;99034.69;5074621;28;20025;-70
2022/01/07 04:11:21;;;;;;;12.50;6.25;;;;;;;-2.81;100.00;99024.59;5088460;28;20024;-71
2022/01/07 04:13:46;;;;;;;11.43;5.97;;;;;;;-2.96;100.00;99002.75;5082524;28;20036;-72
2022/01/07 04:16:12;;;;;;;17.67;6.18;;;;;;;-2.79;100.00;99020.06;5084320;28;20031;-71
2022/01/07 04:18:37;;;;;;;13.70;5.82;;;;;;;-2.91;100.00;99020.00;5083944;28;20029;-71
2022/01/07 04:21:03;;;;;;;16.13;5.88;;;;;;;-3.04;100.00;99005.13;5073285;28;20084;-70
2022/01/07 04:23:29;;;;;;;15.05;5.25;;;;;;;-2.98;100.00;99026.69;5072465;28;20658;-71
2022/01/07 04:25:54;;;;;;;16.48;6.15;;;;;;;-2.96;100.00;99038.03;5090654;28;20393;-71
2022/01/07 04:28:20;;;;;;;14.50;5.82;;;;;;;-3.05;100.00;99016.66;5079708;28;20040;-71
2022/01/07 04:30:46;;;;;;;14.63;5.65;;;;;;;-2.94;100.00;99035.25;5087476;28;20024;-71
2022/01/07 04:33:14;;;;;;;13.75;6.03;;;;;;;-2.98;100.00;99044.38;5074298;28;20028;-71
2022/01/07 04:35:41;;;;;;;12.00;6.00;;;;;;;-3.05;100.00;99027.25;5089444;28;20477;-71
2022/01/07 04:38:07;;;;;;;13.98;5.93;;;;;;;-2.90;100.00;99044.66;5085840;28;20111;-71
2022/01/07 04:40:33;;;;;;;16.80;5.80;;;;;;;-2.80;100.00;99048.34;5077459;28;20060;-71
2022/01/07 04:42:59;;;;;;;12.68;5.35;;;;;;;-2.75;100.00;99050.63;5084812;28;20039;-71
2022/01/07 04:45:26;;;;;;;19.92;6.10;;;;;;;-2.69;100.00;99047.53;5086014;28;20028;-71
2022/01/07 04:47:51;;;;;;;12.68;5.60;;;;;;;-2.90;100.00;99013.75;5083526;28;20099;-71
2022/01/07 04:50:19;;;;;;;13.27;5.65;;;;;;;-2.63;100.00;99055.03;5076425;28;20059;-71
2022/01/07 04:52:45;;;;;;;12.30;5.82;;;;;;;-2.73;100.00;99035.47;5091233;28;20024;-71
2022/01/07 04:55:12;;;;;;;13.10;5.78;;;;;;;-2.65;100.00;99060.44;5088682;28;20055;-71
2022/01/07 04:57:37;;;;;;;15.20;5.60;;;;;;;-2.63;100.00;99057.66;5074249;28;20024;-71
2022/01/07 05:00:04;;;;;;;11.32;5.80;;;;;;;-2.71;100.00;99049.44;5073726;28;20039;-72
2022/01/07 05:02:30;;;;;;;11.82;5.95;;;;;;;-2.78;100.00;99035.81;5095617;22;20034;-72
2022/01/07 05:04:55;;;;;;;20.17;5.80;;;;;;;-2.69;100.00;99064.28;5049375;28;20068;-73
2022/01/07 05:07:20;;;;;;;16.30;6.10;;;;;;;-2.73;100.00;99060.16;5052001;28;20021;-74
2022/01/07 05:09:46;;;;;;;11.70;5.78;;;;;;;-2.65;100.00;99064.88;5052103;28;20029;-75
2022/01/07 05:12:12;;;;;;;14.90;6.55;;;;;;;-2.63;100.00;99070.91;5038198;28;20035;-71
2022/01/07 05:14:37;;;;;;;14.55;5.60;;;;;;;-2.50;100.00;99061.09;5026460;28;20057;-73
2022/01/07 05:17:03;;;;;;;12.85;5.80;;;;;;;-2.42;100.00;99058.72;5022848;28;20018;-71
2022/01/07 05:19:28;;;;;;;12.43;5.22;;;;;;;-2.58;100.00;99044.09;5018253;28;20037;-75
2022/01/07 05:21:54;;;;;;;17.30;5.28;;;;;;;-2.63;100.00;99030.34;5021264;28;20030;-73
2022/01/07 05:24:19;;;;;;;11.73;4.90;;;;;;;-2.43;100.00;99056.19;5007788;28;20049;-74
2022/01/07 05:26:44;;;;;;;11.45;5.00;;;;;;;-2.51;100.00;99047.97;5007758;28;20026;-74
2022/01/07 05:29:09;;;;;;;12.30;5.20;;;;;;;-2.47;100.00;99052.91;5010069;28;20062;-77
2022/01/07 05:31:35;;;;;;;12.88;6.03;;;;;;;-2.44;100.00;99043.88;5032240;28;20021;-77
2022/01/07 05:34:00;;;;;;;11.98;5.45;;;;;;;-2.37;100.00;99046.94;5026283;28;20025;-74
2022/01/07 05:36:26;;;;;;;9.55;5.50;;;;;;;-2.46;100.00;99045.84;5020295;28;20483;-76
2022/01/07 05:38:51;;;;;;;12.77;5.65;;;;;;;-2.48;100.00;99031.84;5015588;28;20041;-75
2022/01/07 05:41:17;;;;;;;12.82;5.68;;;;;;;-2.43;100.00;99030.53;5006382;28;20028;-75
2022/01/07 05:43:43;;;;;;;12.35;6.22;;;;;;;-2.37;100.00;99028.38;5009212;28;20034;-75
2022/01/07 05:46:10;;;;;;;14.23;5.80;;;;;;;-2.30;100.00;99024.31;5005980;28;20041;-75
2022/01/07 05:48:36;;;;;;;13.30;6.00;;;;;;;-2.29;100.00;99015.41;5008974;28;20018;-75
2022/01/07 05:51:02;;;;;;;15.07;5.68;;;;;;;-2.36;100.00;99020.31;5015842;28;20060;-74
2022/01/07 05:53:27;;;;;;;12.35;5.70;;;;;;;-2.31;100.00;99019.97;5008683;28;20100;-75
2022/01/07 05:55:52;;;;;;;15.90;5.97;;;;;;;-2.19;100.00;99021.69;5007542;28;20028;-74
2022/01/07 05:58:18;;;;;;;10.80;5.32;;;;;;;-2.15;100.00;99017.00;5027062;28;20040;-77
2022/01/07 06:00:43;;;;;;;13.80;5.70;;;;;;;-2.12;100.00;99014.09;5025348;28;20022;-76
2022/01/07 06:03:08;;;;;;;13.52;6.10;;;;;;;-2.13;100.00;98999.16;5032482;28;20059;-75
2022/01/07 06:05:34;;;;;;;13.35;5.03;;;;;;;-2.06;100.00;99001.22;5027569;28;20113;-77
2022/01/07 06:07:59;;;;;;;12.45;4.93;;;;;;;-1.98;100.00;99025.34;5018941;28;20030;-73
2022/01/07 06:10:24;;;;;;;13.90;6.00;;;;;;;-2.02;100.00;99023.03;5022549;28;20065;-74
2022/01/07 06:12:50;;;;;;;14.52;5.90;;;;;;;-2.16;100.00;98997.59;5024503;28;20054;-73
2022/01/07 06:15:15;;;;;;;12.60;5.80;;;;;;;-1.98;100.00;99014.72;5025537;28;20010;-74
2022/01/07 06:17:41;;;;;;;15.60;5.55;;;;;;;-1.98;100.00;99014.72;5021931;28;20026;-74
2022/01/07 06:20:07;;;;;;;12.70;6.53;;;;;;;-2.08;100.00;99007.63;5030834;28;20030;-80
2022/01/07 06:22:34;;;;;;;20.92;6.32;;;;;;;-2.28;100.00;98987.94;5031335;28;20037;-74
2022/01/07 06:24:59;;;;;;;13.55;5.72;;;;;;;-2.15;100.00;99007.22;5024213;28;20030;-73
2022/01/07 06:27:25;;;;;;;13.25;6.00;;;;;;;-2.17;100.00;98992.41;5031633;28;20026;-74
2022/01/07 06:29:50;;;;;;;18.25;7.30;;;;;;;-2.11;100.00;99003.38;5025562;28;20033;-73
2022/01/07 06:32:15;;;;;;;17.20;6.80;;;;;;;-2.12;100.00;99004.38;5024881;28;20033;-73
2022/01/07 06:34:41;;;;;;;18.58;7.30;;;;;;;-2.13;100.00;99015.91;5029681;28;20026;-73
2022/01/07 06:37:06;;;;;;;16.60;6.18;;;;;;;-2.16;100.00;99016.16;5031059;28;20038;-73
2022/01/07 06:39:32;;;;;;;12.70;6.35;;;;;;;-2.13;100.00;99009.78;5027402;28;20018;-73
2022/01/07 06:41:59;;;;;;;16.13;6.43;;;;;;;-2.09;100.00;99014.72;5026366;28;20046;-73
2022/01/07 06:44:25;;;;;;;16.90;6.32;;;;;;;-2.10;100.00;99012.19;5016729;28;20386;-73
2022/01/07 06:46:51;;;;;;;13.45;6.38;;;;;;;-2.17;100.00;99003.88;5014052;28;20030;-74
2022/01/07 06:49:16;;;;;;;13.43;5.80;;;;;;;-2.17;100.00;99006.53;5017476;28;20034;-74
2022/01/07 06:51:42;;;;;;;14.13;6.90;;;;;;;-2.24;100.00;98982.28;5012975;28;20034;-74
2022/01/07 06:54:11;;;;;;;15.93;6.63;;;;;;;-2.22;100.00;98976.88;5001419;28;20029;-73
2022/01/07 06:56:38;;;;;;;12.50;4.70;;;;;;;-2.22;100.00;98990.13;5016613;28;20383;-74
2022/01/07 06:59:03;;;;;;;17.88;6.97;;;;;;;-2.12;100.00;99000.84;5016584;28;20029;-74
2022/01/07 07:01:29;;;;;;;15.85;7.07;;;;;;;-2.10;100.00;99002.41;5012180;28;20033;-74
2022/01/07 07:03:54;;;;;;;21.85;7.82;;;;;;;-2.21;100.00;98982.03;5002253;28;20483;-73
2022/01/07 07:06:19;;;;;;;13.95;7.22;;;;;;;-2.04;100.00;99011.72;5014972;28;20030;-73
2022/01/07 07:08:45;;;;;;;15.52;6.78;;;;;;;-2.04;100.00;98988.72;5011083;28;20156;-73
2022/01/07 07:11:10;;;;;;;15.35;7.00;;;;;;;-2.08;100.00;98976.63;4996119;28;20023;-74
2022/01/07 07:13:35;;;;;;;13.02;5.72;;;;;;;-1.95;100.00;98986.31;4999281;28;20026;-74
2022/01/07 07:16:01;;;;;;;15.80;6.28;;;;;;;-1.96;100.00;98980.16;5015587;28;20041;-74
2022/01/07 07:18:26;;;;;;;14.27;6.63;;;;;;;-2.05;100.00;98959.66;5020046;28;20097;-74
2022/01/07 07:20:51;;;;;;;16.75;7.40;;;;;;;-1.93;100.00;98985.22;5010847;28;20026;-74
2022/01/07 07:23:17;;;;;;;15.35;6.57;;;;;;;-1.94;100.00;98972.06;5009212;28;20034;-74
2022/01/07 07:25:42;;;;;;;15.07;6.35;;;;;;;-1.78;100.00;98989.31;5013727;28;20525;-74
2022/01/07 07:28:07;;;;;;;13.68;6.40;;;;;;;-1.77;100.00;98971.59;5014480;28;20034;-73
2022/01/07 07:30:37;;;;;;;12.23;7.00;;;;;;;-1.77;100.00;98968.94;5011758;28;20022;-74
2022/01/07 07:33:31;;;;;;;19.52;7.75;;;;;;;-1.70;100.00;98970.16;5013825;28;20026;-74
2022/01/07 07:38:38;;;;;;;21.35;8.73;;;;;;;-1.75;100.00;98958.22;5011452;28;20032;-74
2022/01/07 07:41:04;;;;;;;20.80;8.05;;;;;;;-1.58;100.00;98957.72;5015919;28;20033;-74
2022/01/07 07:43:29;;;;;;;24.58;7.85;;;;;;;-1.61;100.00;98950.84;5015572;28;20107;-73
2022/01/07 07:45:55;;;;;;;16.08;6.82;;;;;;;-1.48;99.80;98957.81;5016566;28;20026;-74
2022/01/07 07:48:20;;;;;;;18.67;7.28;;;;;;;-1.50;99.35;98960.59;5000514;28;20117;-73
2022/01/07 07:50:46;;;;;;;20.88;6.80;;;;;;;-1.55;98.70;98942.41;5012705;28;20554;-73
2022/01/07 07:53:11;;;;;;;20.55;7.22;;;;;;;-1.48;98.99;98945.41;5012531;28;20487;-73
2022/01/07 07:55:36;;;;;;;17.70;7.38;;;;;;;-1.36;98.00;98951.53;5013976;28;20041;-73
2022/01/07 07:58:02;;;;;;;18.88;6.70;;;;;;;-1.19;97.80;98958.13;5017947;28;20064;-73
2022/01/07 08:00:27;;;;;;;11.65;5.80;;;;;;;-1.24;97.07;98957.66;5013192;28;20042;-73
2022/01/07 08:02:52;;;;;;;11.75;5.80;;;;;;;-1.03;95.83;98958.53;4998673;28;20044;-73
2022/01/07 08:05:18;;;;;;;13.48;6.35;;;;;;;-1.02;96.22;98959.38;5017973;28;20056;-73
2022/01/07 08:07:43;;;;;;;13.40;6.10;;;;;;;-1.01;95.84;98945.16;4999047;28;20062;-73
2022/01/07 08:10:09;;;;;;;14.07;6.50;;;;;;;-0.90;95.17;98948.59;5014149;28;20053;-73
2022/01/07 08:18:01;;;;;;;18.70;6.43;;;;;;;-1.07;94.59;98937.66;5014968;28;20064;-73
2022/01/07 08:20:27;;;;;;;13.60;5.80;;;;;;;-0.97;94.79;98946.56;5008349;28;20030;-73
2022/01/07 08:22:52;;;;;;;14.40;6.43;;;;;;;-1.05;94.99;98919.81;5012902;28;20042;-73
2022/01/07 08:25:17;;;;;;;11.75;6.15;;;;;;;-0.79;94.73;98945.03;5007707;28;20045;-73
2022/01/07 08:27:43;;;;;;;14.52;6.35;;;;;;;-0.70;93.60;98933.66;5005504;28;20045;-67
2022/01/07 08:30:15;;;;;;;13.52;5.97;;;;;;;-0.62;93.11;98927.69;5014182;28;20037;-67
2022/01/07 08:35:28;;;;;;;13.63;5.28;;;;;;;-0.54;91.50;98919.91;5014616;28;20088;-78
2022/01/07 08:37:53;;;;;;;15.32;5.75;;;;;;;-0.46;90.95;98922.75;5005179;28;20534;-77
2022/01/07 08:40:18;;;;;;;13.77;6.25;;;;;;;-0.41;91.03;98922.38;4995999;28;20030;-76
2022/01/07 08:42:44;;;;;;;12.55;6.03;;;;;;;-0.47;90.73;98913.13;5002009;28;20080;-77
2022/01/07 08:45:09;;;;;;;12.20;4.97;;;;;;;-0.40;90.05;98929.38;5013599;28;20033;-77
2022/01/07 08:47:34;;;;;;;13.00;5.20;;;;;;;-0.41;89.81;98909.09;5012838;28;20022;-78
2022/01/07 08:49:59;;;;;;;10.43;5.65;;;;;;;-0.26;89.32;98934.38;5009086;28;20099;-79
2022/01/07 08:52:25;;;;;;;10.55;5.40;;;;;;;-0.31;89.37;98917.97;5012476;28;20037;-75
2022/01/07 08:54:50;;;;;;;13.95;5.85;;;;;;;-0.36;89.52;98911.38;5010877;28;20033;-74
2022/01/07 08:57:17;;;;;;;12.63;6.55;;;;;;;-0.22;89.38;98926.97;5010728;28;20415;-75
2022/01/07 08:59:42;;;;;;;10.38;5.53;;;;;;;-0.17;89.57;98924.75;5010236;28;20041;-76
2022/01/07 09:02:08;;;;;;;15.10;6.00;;;;;;;-0.04;88.46;98912.06;5004411;28;20030;-76
2022/01/07 09:04:33;;;;;;;12.23;6.00;;;;;;;0.12;87.12;98918.72;5009182;28;20088;-75
2022/01/07 09:06:58;;;;;;;14.00;6.57;;;;;;;0.21;86.98;98924.09;5008285;28;20187;-72
2022/01/07 09:09:24;;;;;;;9.93;5.35;;;;;;;0.33;86.62;98926.63;5010843;28;20033;-75
2022/01/07 09:11:49;;;;;;;11.10;5.43;;;;;;;0.17;85.61;98903.19;5005918;28;20041;-73
2022/01/07 09:14:15;;;;;;;12.35;5.20;;;;;;;0.21;85.59;98908.13;4997193;28;20031;-73
2022/01/07 09:16:41;;;;;;;12.23;5.13;;;;;;;0.26;85.77;98909.50;5009787;28;20022;-74
2022/01/07 09:19:06;;;;;;;13.57;5.70;;;;;;;0.19;86.18;98895.94;5008362;28;20032;-76
2022/01/07 09:21:32;;;;;;;10.60;5.63;;;;;;;0.13;85.81;98915.94;5012710;28;20454;-75
2022/01/07 09:23:58;;;;;;;12.57;5.60;;;;;;;-0.04;86.69;98896.13;5004388;28;20029;-75
2022/01/07 09:26:23;;;;;;;11.32;5.30;;;;;;;-0.08;86.77;98897.38;4999316;28;20037;-74
2022/01/07 09:28:48;;;;;;;12.15;5.63;;;;;;;0.04;86.82;98911.41;5002630;28;20025;-77
2022/01/07 09:31:14;;;;;;;11.90;5.22;;;;;;;0.07;86.43;98891.69;5005721;28;20483;-73
2022/01/07 09:33:39;;;;;;;9.93;5.10;;;;;;;0.14;86.29;98887.50;5006375;28;20057;-74
2022/01/07 09:36:05;;;;;;;14.38;6.45;;;;;;;0.20;86.44;98906.41;5003124;28;20054;-74
2022/01/07 09:38:30;;;;;;;12.88;5.63;;;;;;;0.19;85.86;98894.09;4992326;28;20108;-74
2022/01/07 09:40:56;;;;;;;12.30;5.38;;;;;;;0.13;85.71;98880.47;5008939;28;20030;-73
2022/01/07 09:43:22;;;;;;;11.52;6.05;;;;;;;0.26;86.13;98904.19;5005440;28;20028;-73
2022/01/07 09:45:48;;;;;;;10.98;5.50;;;;;;;0.20;85.72;98903.75;5015119;28;20120;-76
2022/01/07 09:48:13;;;;;;;10.65;5.13;;;;;;;0.22;85.11;98893.00;5032691;28;20013;-75
2022/01/07 09:50:38;;;;;;;10.82;6.00;;;;;;;0.22;85.13;98891.16;5028549;28;20056;-70
2022/01/07 09:53:07;;;;;;;9.32;4.80;;;;;;;0.35;84.30;98903.41;5029806;28;20225;-74
2022/01/07 09:55:33;;;;;;;9.40;4.43;;;;;;;0.42;83.21;98912.53;5025463;28;20084;-74
2022/01/07 09:58:00;;;;;;;10.95;4.05;;;;;;;0.29;82.56;98883.50;5031499;28;20266;-72
2022/01/07 10:00:32;;;;;;;12.45;5.07;;;;;;;0.56;82.79;98896.16;5027589;28;20148;-73
2022/01/07 10:03:02;;;;;;;13.75;5.63;;;;;;;0.49;81.99;98887.03;5024490;28;20018;-73
2022/01/07 10:05:29;;;;;;;10.30;4.07;;;;;;;0.51;80.36;98878.91;5028325;28;20013;-74
2022/01/07 10:07:54;;;;;;;8.73;4.28;;;;;;;0.49;80.76;98888.84;5029622;28;20021;-73
2022/01/07 10:10:20;;;;;;;11.02;4.50;;;;;;;0.44;80.78;98871.47;5028635;28;20038;-71
2022/01/07 10:13:00;;;;;;;9.93;4.05;;;;;;;0.59;80.04;98884.38;5028729;28;20033;-73
2022/01/07 10:15:28;;;;;;;10.25;4.10;;;;;;;0.51;80.33;98882.41;5027617;28;20010;-75
2022/01/07 10:17:58;;;;;;;9.68;5.13;;;;;;;0.36;80.42;98875.78;5023793;28;20080;-72
2022/01/07 10:20:42;;;;;;;15.63;4.70;;;;;;;0.53;81.45;98888.44;5012467;28;20706;-72
2022/01/07 10:23:13;;;;;;;10.43;4.57;;;;;;;0.34;81.94;98881.28;5008717;28;20471;-71
2022/01/07 10:25:45;;;;;;;10.98;4.95;;;;;;;0.29;82.79;98887.94;5017478;28;20030;-73
2022/01/07 10:28:15;;;;;;;9.77;4.72;;;;;;;0.17;83.86;98884.56;5007233;28;20487;-72
2022/01/07 10:30:50;;;;;;;10.50;4.80;;;;;;;0.01;85.73;98866.47;5002222;28;20121;-71
2022/01/07 10:33:24;;;;;;;13.10;4.82;;;;;;;-0.14;90.08;98876.63;5013588;28;20026;-75
2022/01/07 10:35:51;;;;;;;10.57;5.60;;;;;;;-0.14;93.77;98867.81;5013154;28;20022;-76
2022/01/07 10:38:23;;;;;;;11.63;5.43;;;;;;;-0.30;95.21;98844.38;4997309;28;20038;-78
2022/01/07 10:40:50;;;;;;;16.13;5.43;;;;;;;-0.25;97.96;98863.41;4995706;28;20142;-73
2022/01/07 10:43:25;;;;;;;12.63;5.30;;;;;;;-0.26;99.50;98861.75;5016046;28;20045;-74
2022/01/07 10:45:51;;;;;;;12.48;6.40;;;;;;;-0.41;100.00;98853.28;5015257;28;20022;-74
2022/01/07 10:48:19;;;;;;;21.08;7.20;;;;;;;-0.38;100.00;98850.34;5011939;28;20483;-74
2022/01/07 10:50:50;;;;;;;14.15;6.97;;;;;;;-0.31;100.00;98840.88;5014965;28;20128;-74
2022/01/07 10:53:19;;;;;;;13.32;5.75;;;;;;;-0.37;100.00;98819.28;5013231;28;20084;-74
2022/01/07 10:56:16;;;;;;;10.40;5.63;;;;;;;-0.27;100.00;98838.78;5014962;28;20026;-74
2022/01/07 10:58:52;;;;;;;10.48;5.65;;;;;;;-0.17;100.00;98844.16;4983452;28;20069;-74
2022/01/07 11:01:20;;;;;;;13.95;5.97;;;;;;;-0.04;100.00;98840.25;5001890;28;20060;-72
2022/01/07 11:03:53;;;;;;;13.43;5.85;;;;;;;-0.12;100.00;98810.84;5054689;22;20053;-69
2022/01/07 11:06:20;;;;;;;12.38;6.38;;;;;;;0.08;100.00;98838.34;5014573;28;20030;-70
2022/01/07 11:08:50;;;;;;;13.98;6.13;;;;;;;-0.08;100.00;98844.19;5014946;28;20422;-69
2022/01/07 11:11:17;;;;;;;13.05;6.13;;;;;;;-0.15;100.00;98828.91;5014742;28;20057;-69
2022/01/07 11:13:43;;;;;;;12.15;6.20;;;;;;;-0.16;100.00;98838.66;5009434;28;20034;-70
2022/01/07 11:16:08;;;;;;;15.63;6.70;;;;;;;-0.31;100.00;98811.63;5006350;28;20033;-70
2022/01/07 11:18:39;;;;;;;16.00;6.18;;;;;;;-0.30;100.00;98815.97;5001449;28;20034;-70
2022/01/07 11:21:06;;;;;;;12.63;6.57;;;;;;;-0.35;100.00;98814.69;5007759;28;20025;-70
2022/01/07 11:23:33;;;;;;;15.68;6.32;;;;;;;-0.56;100.00;98769.56;5013637;28;20045;-71
2022/01/07 11:26:04;;;;;;;16.17;6.55;;;;;;;-0.43;100.00;98807.38;5005763;28;20034;-72